KVLD/VLD METAR and TAF weather

Enter ICAO airport designator
Station Type Date Time Source
KVLD METAR 2019/07/18 10:53 UTC NOAA

KVLD 181053Z 00000KT 8SM CLR 22/21 A3009 RMK AO2 SLP193 T02220211


Station Type Date Time Source
KVLD Decoded METAR 2019/07/18 10:53 UTC NOAA

VALDOSTA REGIONAL AIRPORT, GA, United States (KVLD) 30-47N 083-16W
Jul 18, 2019 - 06:53 AM EDT / 2019.07.18 1053 UTC
Wind: Calm:0
Visibility: 8 mile(s):0
Sky conditions: clear
Temperature: 72.0 F (22.2 C)
Dew Point: 70.0 F (21.1 C)
Relative Humidity: 93%
Pressure (altimeter): 30.09 in. Hg (1018 hPa)
ob: KVLD 181053Z 00000KT 8SM CLR 22/21 A3009 RMK AO2 SLP193 T02220211
cycle: 11

Station Type Date Time Source
KVLD TAF 2019/07/18 12:22 UTC NOAA

TAF KVLD 181120Z 1812/1912 VRB05KT P6SM SCT015
TEMPO 1812/1814 5SM BR BKN015
FM181800 26006KT P6SM VCTS BKN050CB
FM190000 16002KT P6SM BKN250

Example: see airport list